createdAt,value
2022-08-26T00:04:42.114Z,21.46
2022-08-26T00:09:47.432Z,21.40
2022-08-26T00:14:52.107Z,21.38
2022-08-26T00:19:55.146Z,21.41
2022-08-26T00:24:58.322Z,21.40
2022-08-26T00:30:03.459Z,21.40
2022-08-26T00:35:08.068Z,21.42
2022-08-26T00:40:16.488Z,21.39
2022-08-26T00:45:22.053Z,21.42
2022-08-26T00:50:42.443Z,21.36
2022-08-26T00:55:45.569Z,21.39
2022-08-26T01:00:50.050Z,21.36
2022-08-26T01:05:56.641Z,21.31
2022-08-26T01:11:07.471Z,21.30
2022-08-26T01:16:16.743Z,21.21
2022-08-26T01:21:28.190Z,21.23
2022-08-26T01:26:36.749Z,21.15
2022-08-26T01:31:43.586Z,21.10
2022-08-26T01:36:51.342Z,21.13
2022-08-26T01:41:58.630Z,21.13
2022-08-26T01:47:07.780Z,21.11
2022-08-26T01:52:17.412Z,21.14
2022-08-26T01:57:22.990Z,21.12
2022-08-26T02:02:27.341Z,21.05
2022-08-26T02:07:35.266Z,21.08
2022-08-26T02:12:41.271Z,21.00
2022-08-26T02:17:47.931Z,20.97
2022-08-26T02:22:55.738Z,20.94
2022-08-26T02:28:00.182Z,20.90
2022-08-26T02:33:04.992Z,20.82
2022-08-26T02:38:11.198Z,20.85
2022-08-26T02:43:15.813Z,20.81
2022-08-26T02:48:21.326Z,20.79
2022-08-26T02:53:25.392Z,20.75
2022-08-26T02:58:30.329Z,20.81
2022-08-26T03:03:36.498Z,20.77
2022-08-26T03:08:39.780Z,20.72
2022-08-26T03:13:44.355Z,20.71
2022-08-26T03:18:52.208Z,20.71
2022-08-26T03:23:56.161Z,20.67
2022-08-26T03:29:21.083Z,20.60
2022-08-26T03:34:24.515Z,20.56
2022-08-26T03:39:31.479Z,20.57
2022-08-26T03:44:37.066Z,20.58
2022-08-26T03:49:45.139Z,20.45
2022-08-26T03:54:48.188Z,20.49
2022-08-26T03:59:52.733Z,20.45
2022-08-26T04:04:56.812Z,20.40
2022-08-26T04:10:00.439Z,20.38
2022-08-26T04:15:05.505Z,20.36
2022-08-26T04:20:09.772Z,20.31
2022-08-26T04:25:14.091Z,20.37
2022-08-26T04:30:20.136Z,20.39
2022-08-26T04:35:26.169Z,20.35
2022-08-26T04:40:29.412Z,20.32
2022-08-26T04:45:37.423Z,20.36
2022-08-26T04:50:41.229Z,20.37
2022-08-26T04:55:46.571Z,20.37
2022-08-26T05:00:55.118Z,20.42
2022-08-26T05:05:59.043Z,20.41
2022-08-26T05:11:05.744Z,20.37
2022-08-26T05:16:12.901Z,20.42
2022-08-26T05:21:20.636Z,20.37
2022-08-26T05:26:24.879Z,20.28
2022-08-26T05:31:32.572Z,20.30
2022-08-26T05:36:37.811Z,20.35
2022-08-26T05:41:44.779Z,20.29
2022-08-26T05:46:49.482Z,20.33
2022-08-26T05:51:54.435Z,20.38
2022-08-26T05:56:57.588Z,20.50
2022-08-26T06:02:03.577Z,20.59
2022-08-26T06:07:06.637Z,20.73
2022-08-26T06:12:13.006Z,20.88
2022-08-26T06:17:19.720Z,21.03
2022-08-26T06:22:40.200Z,21.16
2022-08-26T06:27:43.517Z,21.11
2022-08-26T06:32:49.449Z,21.21
2022-08-26T06:37:52.445Z,21.26
2022-08-26T06:42:55.566Z,21.17
2022-08-26T06:48:00.423Z,21.18
2022-08-26T06:53:04.529Z,21.33
2022-08-26T06:58:07.655Z,21.42
2022-08-26T07:03:12.797Z,21.57
2022-08-26T07:08:16.386Z,21.69
2022-08-26T07:13:29.893Z,21.71
2022-08-26T07:18:39.081Z,21.66
2022-08-26T07:23:42.715Z,21.62
2022-08-26T07:28:47.243Z,21.40
2022-08-26T07:33:57.639Z,21.32
2022-08-26T07:39:00.823Z,21.37
2022-08-26T07:44:04.389Z,21.51
2022-08-26T07:49:09.531Z,21.38
2022-08-26T07:54:12.637Z,21.44
2022-08-26T07:59:17.049Z,21.50
2022-08-26T08:04:26.040Z,21.65
2022-08-26T08:09:29.723Z,21.72
2022-08-26T08:14:34.630Z,21.83
2022-08-26T08:19:39.343Z,21.90
2022-08-26T08:24:42.836Z,22.03
2022-08-26T08:29:46.610Z,22.11
2022-08-26T08:34:51.060Z,22.15
2022-08-26T08:39:54.741Z,22.25
2022-08-26T08:45:00.600Z,22.23
2022-08-26T08:50:13.874Z,22.33
2022-08-26T08:55:18.254Z,22.29
2022-08-26T09:00:30.088Z,22.33
2022-08-26T09:05:42.612Z,22.42
2022-08-26T09:10:52.797Z,22.32
2022-08-26T09:16:07.127Z,22.25
2022-08-26T09:21:15.325Z,22.23
2022-08-26T09:26:29.362Z,22.11
2022-08-26T09:31:35.882Z,22.34
2022-08-26T09:36:43.904Z,22.29
2022-08-26T09:42:03.702Z,22.48
2022-08-26T09:47:09.104Z,22.67
2022-08-26T09:52:23.507Z,22.94
2022-08-26T09:57:29.756Z,22.94
2022-08-26T10:02:47.731Z,22.96
2022-08-26T10:07:54.800Z,22.99
2022-08-26T10:13:06.297Z,22.98
2022-08-26T10:18:15.196Z,23.00
2022-08-26T10:23:23.377Z,23.00
2022-08-26T10:28:33.788Z,22.79
2022-08-26T10:33:39.284Z,22.65
2022-08-26T10:38:44.438Z,22.66
2022-08-26T10:43:52.504Z,22.52
2022-08-26T10:49:00.235Z,22.50
2022-08-26T10:54:11.992Z,22.63
2022-08-26T10:59:22.780Z,22.50
2022-08-26T11:04:38.793Z,22.56
2022-08-26T11:09:47.873Z,22.79
2022-08-26T11:14:58.734Z,22.88
2022-08-26T11:20:09.241Z,23.07
2022-08-26T11:25:19.353Z,23.32
2022-08-26T11:30:48.605Z,23.37
2022-08-26T11:36:00.111Z,23.60
2022-08-26T11:41:21.877Z,23.80
2022-08-26T11:46:28.055Z,24.05
2022-08-26T11:51:31.922Z,24.03
2022-08-26T11:56:38.159Z,23.65
2022-08-26T12:01:45.680Z,23.68
2022-08-26T12:06:52.421Z,23.53
2022-08-26T12:12:15.010Z,23.50
2022-08-26T12:17:22.454Z,23.68
2022-08-26T12:22:28.733Z,23.74
2022-08-26T12:27:34.996Z,23.70
2022-08-26T12:32:57.115Z,23.67
2022-08-26T12:38:01.516Z,23.53
2022-08-26T12:43:07.431Z,23.66
2022-08-26T12:48:13.534Z,23.50
2022-08-26T12:53:22.361Z,23.45
2022-08-26T12:58:31.693Z,23.48
2022-08-26T13:03:44.542Z,23.36
2022-08-26T13:08:48.634Z,23.14
2022-08-26T13:13:56.728Z,23.18
2022-08-26T13:19:03.107Z,23.26
2022-08-26T13:24:09.422Z,23.21
2022-08-26T13:29:14.375Z,23.20
2022-08-26T13:34:19.536Z,23.16
2022-08-26T13:39:23.637Z,23.29
2022-08-26T13:44:28.322Z,23.45
2022-08-26T13:49:31.217Z,23.29
2022-08-26T13:54:34.624Z,23.19
2022-08-26T13:59:39.158Z,23.28
2022-08-26T14:04:43.388Z,23.56
2022-08-26T14:09:46.498Z,23.44
2022-08-26T14:14:51.210Z,23.36
2022-08-26T14:19:54.656Z,23.33
2022-08-26T14:24:57.643Z,23.17
2022-08-26T14:30:03.432Z,23.11
2022-08-26T14:35:07.351Z,23.00
2022-08-26T14:40:14.266Z,23.05
2022-08-26T14:45:23.515Z,23.04
2022-08-26T14:50:27.853Z,22.95
2022-08-26T14:55:36.003Z,22.88
2022-08-26T15:00:40.458Z,22.88
2022-08-26T15:05:48.040Z,22.95
2022-08-26T15:10:51.252Z,23.17
2022-08-26T15:15:55.807Z,23.18
2022-08-26T15:20:58.882Z,23.03
2022-08-26T15:26:04.350Z,23.21
2022-08-26T15:31:09.803Z,23.43
2022-08-26T15:36:12.933Z,23.66
2022-08-26T15:41:16.141Z,23.81
2022-08-26T15:46:21.166Z,23.89
2022-08-26T15:51:25.786Z,24.30
2022-08-26T15:56:31.074Z,24.33
2022-08-26T16:01:36.318Z,24.25
2022-08-26T16:06:41.612Z,23.92
2022-08-26T16:11:44.597Z,23.85
2022-08-26T16:16:49.250Z,23.52
2022-08-26T16:21:52.513Z,23.33
2022-08-26T16:26:55.932Z,23.26
2022-08-26T16:32:00.285Z,23.02
2022-08-26T16:37:03.466Z,23.31
2022-08-26T16:42:06.768Z,23.54
2022-08-26T16:47:12.219Z,23.75
2022-08-26T16:52:15.223Z,23.73
2022-08-26T16:57:18.259Z,23.53
2022-08-26T17:02:22.651Z,23.31
2022-08-26T17:07:27.610Z,23.11
2022-08-26T17:12:31.392Z,22.91
2022-08-26T17:17:35.927Z,22.69
2022-08-26T17:22:40.498Z,22.50
2022-08-26T17:27:44.597Z,22.44
2022-08-26T17:32:49.697Z,22.46
2022-08-26T17:37:53.137Z,22.36
2022-08-26T17:42:56.751Z,22.21
2022-08-26T17:48:01.445Z,22.17
2022-08-26T17:53:04.645Z,22.13
2022-08-26T17:58:07.970Z,22.01
2022-08-26T18:03:12.437Z,21.90
2022-08-26T18:08:15.483Z,21.83
2022-08-26T18:13:19.329Z,21.82
2022-08-26T18:18:23.680Z,21.76
2022-08-26T18:23:26.948Z,21.69
2022-08-26T18:28:37.841Z,21.63
2022-08-26T18:33:43.216Z,21.60
2022-08-26T18:38:46.630Z,21.50
2022-08-26T18:43:50.870Z,21.45
2022-08-26T18:48:56.840Z,21.37
2022-08-26T18:54:01.337Z,21.32
2022-08-26T18:59:05.847Z,21.27
2022-08-26T19:04:15.302Z,21.13
2022-08-26T19:09:20.028Z,21.01
2022-08-26T19:14:23.935Z,20.88
2022-08-26T19:19:28.679Z,20.81
2022-08-26T19:24:32.232Z,20.75
2022-08-26T19:29:36.874Z,20.66
2022-08-26T19:34:41.217Z,20.61
2022-08-26T19:39:44.232Z,20.41
2022-08-26T19:45:04.375Z,20.29
2022-08-26T19:50:11.557Z,20.17
2022-08-26T19:55:17.021Z,20.03
2022-08-26T20:00:22.501Z,19.91
2022-08-26T20:05:27.995Z,19.71
2022-08-26T20:10:31.003Z,19.63
2022-08-26T20:15:34.114Z,19.49
2022-08-26T20:20:56.082Z,19.38
2022-08-26T20:25:59.043Z,19.30
2022-08-26T20:31:04.727Z,19.22
2022-08-26T20:36:10.789Z,19.09
2022-08-26T20:41:14.212Z,18.96
2022-08-26T20:46:20.298Z,18.84
2022-08-26T20:51:27.404Z,18.75
2022-08-26T20:56:30.558Z,18.66
2022-08-26T21:01:42.320Z,18.59
2022-08-26T21:06:52.708Z,18.49
2022-08-26T21:11:56.338Z,18.39
2022-08-26T21:16:59.564Z,18.28
2022-08-26T21:22:04.054Z,18.21
2022-08-26T21:27:07.071Z,18.11
2022-08-26T21:32:10.184Z,18.08
2022-08-26T21:37:20.169Z,18.00
2022-08-26T21:42:24.564Z,17.95
2022-08-26T21:47:27.712Z,17.84
2022-08-26T21:52:37.548Z,17.75
2022-08-26T21:57:40.900Z,17.68
2022-08-26T22:02:44.535Z,17.57
2022-08-26T22:07:49.167Z,17.52
2022-08-26T22:12:52.430Z,17.44
2022-08-26T22:17:55.611Z,17.40
2022-08-26T22:23:00.976Z,17.34
2022-08-26T22:28:08.329Z,17.28
2022-08-26T22:33:11.859Z,17.23
2022-08-26T22:38:16.721Z,17.14
2022-08-26T22:43:20.342Z,17.12
2022-08-26T22:48:25.774Z,17.05
2022-08-26T22:53:30.564Z,17.04
2022-08-26T22:58:38.869Z,16.99
2022-08-26T23:03:42.301Z,16.96
2022-08-26T23:08:47.461Z,16.90
2022-08-26T23:13:50.727Z,16.89
2022-08-26T23:18:55.477Z,16.88
2022-08-26T23:24:00.049Z,16.86
2022-08-26T23:29:03.967Z,16.83
2022-08-26T23:34:25.115Z,16.80
2022-08-26T23:39:29.808Z,16.77
2022-08-26T23:44:32.975Z,16.79
2022-08-26T23:49:37.103Z,16.82
2022-08-26T23:54:41.925Z,16.81
2022-08-26T23:59:45.195Z,16.76
